Time;durP1;ratioP1;P1;durP2;ratioP2;P2;SDS_P1;SDS_P2;PMS_P1;PMS_P2;Temp;Humidity;BMP_temperature;BMP_pressure;BME280_temperature;BME280_humidity;BME280_pressure;Samples;Min_cycle;Max_cycle;Signal;HPM_P1;HPM_P2
2022/06/24 04:01:22;;;;;;;8.03;4.50;;;18.50;99.90;;;;;;5563668;22;20485;-62
2022/06/24 04:03:49;;;;;;;7.97;4.30;;;18.40;99.90;;;;;;4997103;28;20544;-62
2022/06/24 04:06:16;;;;;;;8.20;4.10;;;18.40;99.90;;;;;;4997027;28;20492;-62
2022/06/24 04:08:42;;;;;;;7.10;3.93;;;18.40;99.90;;;;;;4996999;28;20539;-62
2022/06/24 04:11:10;;;;;;;4.20;3.80;;;18.40;99.90;;;;;;4996852;28;20474;-62
2022/06/24 04:13:37;;;;;;;12.83;4.93;;;18.40;99.90;;;;;;4996589;28;20441;-62
2022/06/24 04:16:04;;;;;;;7.27;3.80;;;18.40;99.90;;;;;;4996478;28;20879;-62
2022/06/24 04:18:32;;;;;;;5.33;4.40;;;18.40;99.90;;;;;;4996773;28;20477;-62
2022/06/24 04:20:59;;;;;;;8.73;4.30;;;18.40;99.90;;;;;;4996807;28;20478;-62
2022/06/24 04:23:26;;;;;;;5.10;3.93;;;18.50;99.90;;;;;;4996804;28;20465;-62
2022/06/24 04:25:53;;;;;;;5.83;3.47;;;18.50;99.90;;;;;;4996550;28;20940;-63
2022/06/24 04:28:21;;;;;;;7.73;3.90;;;18.40;99.90;;;;;;4996867;28;20477;-63
2022/06/24 04:30:47;;;;;;;4.90;4.33;;;18.40;99.90;;;;;;4996575;28;20481;-62
2022/06/24 04:33:14;;;;;;;5.20;4.60;;;18.40;99.90;;;;;;4996526;28;20457;-62
2022/06/24 04:35:42;;;;;;;4.87;4.10;;;18.40;99.90;;;;;;4996617;28;20457;-63
2022/06/24 04:38:09;;;;;;;7.60;5.10;;;18.40;99.90;;;;;;4996114;28;20888;-62
2022/06/24 04:40:35;;;;;;;5.90;4.50;;;18.50;99.90;;;;;;4996406;28;20478;-62
2022/06/24 04:43:02;;;;;;;14.80;5.07;;;18.50;99.90;;;;;;4996466;28;20481;-62
2022/06/24 04:45:30;;;;;;;6.87;4.50;;;18.60;99.90;;;;;;4995990;28;20948;-62
2022/06/24 04:47:57;;;;;;;6.33;4.40;;;18.60;99.90;;;;;;4996352;28;20490;-63
2022/06/24 04:50:24;;;;;;;5.07;3.90;;;18.60;99.90;;;;;;4996167;28;20457;-62
2022/06/24 04:52:52;;;;;;;5.77;4.57;;;18.60;99.90;;;;;;4996360;28;20465;-62
2022/06/24 04:55:19;;;;;;;19.50;5.00;;;18.70;99.90;;;;;;4995995;28;20948;-62
2022/06/24 04:57:45;;;;;;;4.70;4.13;;;18.70;99.90;;;;;;4996139;28;20500;-62
2022/06/24 05:00:13;;;;;;;4.93;4.20;;;18.70;99.90;;;;;;4995905;28;20453;-63
2022/06/24 05:02:41;;;;;;;6.67;4.60;;;18.80;99.90;;;;;;4995729;28;20924;-63
2022/06/24 05:05:08;;;;;;;6.43;4.30;;;18.80;99.90;;;;;;4995944;28;20876;-63
2022/06/24 05:07:35;;;;;;;7.00;4.33;;;18.80;99.90;;;;;;4995883;28;20454;-63
2022/06/24 05:10:04;;;;;;;5.97;4.17;;;19.00;99.90;;;;;;4995974;28;20457;-63
2022/06/24 05:12:31;;;;;;;9.13;4.90;;;19.00;99.90;;;;;;4995112;28;20486;-62
2022/06/24 05:14:58;;;;;;;5.77;4.30;;;19.00;99.90;;;;;;4995436;28;20933;-63
2022/06/24 05:17:26;;;;;;;7.27;4.70;;;19.10;99.90;;;;;;4995739;28;20460;-63
2022/06/24 05:19:53;;;;;;;7.80;4.70;;;19.10;99.90;;;;;;4995725;28;20454;-62
2022/06/24 05:22:20;;;;;;;7.30;3.90;;;19.20;99.90;;;;;;4995462;28;20477;-61
2022/06/24 05:24:47;;;;;;;8.40;4.30;;;19.30;99.90;;;;;;4995472;28;20449;-62
2022/06/24 05:27:15;;;;;;;6.03;4.87;;;19.40;99.90;;;;;;4995353;28;20453;-62
2022/06/24 05:29:41;;;;;;;8.80;4.40;;;19.40;99.90;;;;;;4995460;28;20458;-62
2022/06/24 05:32:08;;;;;;;9.40;4.87;;;19.50;99.90;;;;;;4995252;28;20477;-61
2022/06/24 05:34:35;;;;;;;8.50;4.70;;;19.70;99.90;;;;;;4995307;28;20462;-62
2022/06/24 05:37:02;;;;;;;9.40;5.03;;;19.90;99.90;;;;;;4995259;28;20460;-62
2022/06/24 05:39:28;;;;;;;5.30;4.00;;;20.00;99.90;;;;;;4995137;28;20482;-62
2022/06/24 05:41:55;;;;;;;5.83;3.70;;;20.20;99.90;;;;;;4995064;28;20485;-62
2022/06/24 05:44:23;;;;;;;8.10;3.93;;;20.30;99.90;;;;;;4995213;28;20509;-62
2022/06/24 05:46:51;;;;;;;11.27;3.93;;;20.40;99.90;;;;;;4994664;28;20933;-62
2022/06/24 05:49:18;;;;;;;12.30;4.03;;;20.60;99.90;;;;;;4994860;28;20454;-62
2022/06/24 05:51:45;;;;;;;7.23;3.50;;;20.80;99.90;;;;;;4994852;28;20473;-62
2022/06/24 05:56:55;;;;;;;6.63;3.07;;;21.10;99.90;;;;;;4995083;28;20413;-62
2022/06/24 05:59:24;;;;;;;7.10;3.27;;;21.30;99.90;;;;;;4994506;28;20478;-62
2022/06/24 06:01:50;;;;;;;4.77;3.47;;;21.40;99.90;;;;;;4994402;28;20577;-62
2022/06/24 06:04:17;;;;;;;6.20;3.20;;;21.50;99.90;;;;;;4995212;28;20508;-62
2022/06/24 06:06:45;;;;;;;6.30;3.40;;;21.60;99.90;;;;;;4994701;28;20458;-62
2022/06/24 06:09:12;;;;;;;4.00;3.03;;;21.70;99.90;;;;;;4994370;28;20458;-61
2022/06/24 06:11:39;;;;;;;4.93;2.67;;;21.90;99.90;;;;;;4994275;28;20992;-62
2022/06/24 06:14:06;;;;;;;6.80;3.43;;;22.00;99.90;;;;;;4994517;28;20454;-62
2022/06/24 06:16:34;;;;;;;7.50;3.40;;;22.20;99.90;;;;;;4998450;28;20485;-62
2022/06/24 06:19:01;;;;;;;6.40;2.70;;;22.20;99.90;;;;;;5004057;28;20478;-62
2022/06/24 06:21:27;;;;;;;6.50;3.30;;;22.20;99.90;;;;;;4995508;28;20520;-62
2022/06/24 06:23:54;;;;;;;4.57;2.70;;;22.30;99.90;;;;;;4993905;28;20816;-62
2022/06/24 06:26:21;;;;;;;5.70;3.07;;;22.50;99.90;;;;;;4994433;28;20453;-62
2022/06/24 06:28:47;;;;;;;3.77;2.27;;;22.70;99.90;;;;;;4994481;28;20450;-62
2022/06/24 06:31:14;;;;;;;5.03;2.90;;;22.90;99.90;;;;;;4994431;28;20839;-62
2022/06/24 06:33:42;;;;;;;10.13;3.37;;;23.10;99.90;;;;;;4994355;28;20461;-62
2022/06/24 06:36:11;;;;;;;5.93;3.13;;;23.40;99.90;;;;;;4994335;28;20438;-62
2022/06/24 06:38:39;;;;;;;5.73;3.53;;;23.70;99.90;;;;;;4994294;28;20588;-62
2022/06/24 06:41:06;;;;;;;5.90;3.47;;;24.00;99.90;;;;;;4994251;28;20473;-62
2022/06/24 06:43:33;;;;;;;6.90;3.30;;;24.20;99.90;;;;;;4993980;28;20963;-62
2022/06/24 06:46:00;;;;;;;5.50;3.60;;;24.20;99.90;;;;;;4994359;28;20473;-62
2022/06/24 06:48:27;;;;;;;4.70;2.97;;;24.50;99.90;;;;;;4994041;28;20819;-62
2022/06/24 06:50:58;;;;;;;6.57;3.10;;;24.80;99.90;;;;;;4994141;28;20841;-62
2022/06/24 06:53:26;;;;;;;6.60;3.00;;;25.00;99.90;;;;;;4994583;28;20457;-62
2022/06/24 06:55:53;;;;;;;7.40;3.07;;;25.30;99.90;;;;;;4994573;28;20553;-62
2022/06/24 06:58:21;;;;;;;5.47;3.00;;;25.50;99.90;;;;;;4994019;28;20484;-62
2022/06/24 07:00:48;;;;;;;8.90;2.90;;;25.60;99.90;;;;;;4993970;28;20489;-63
2022/06/24 07:03:15;;;;;;;5.27;2.70;;;26.00;99.90;;;;;;4994099;28;20454;-62
2022/06/24 07:05:42;;;;;;;6.40;2.23;;;26.30;99.90;;;;;;4994028;28;20462;-62
2022/06/24 07:08:11;;;;;;;5.00;2.20;;;26.80;99.90;;;;;;4994127;28;20557;-62
2022/06/24 07:10:39;;;;;;;8.37;2.63;;;27.40;99.90;;;;;;4993482;28;21029;-62
2022/06/24 07:13:06;;;;;;;4.33;2.30;;;27.60;99.90;;;;;;4994058;28;20453;-62
2022/06/24 07:15:33;;;;;;;5.43;2.43;;;28.10;99.90;;;;;;4993972;28;20464;-62
2022/06/24 07:18:00;;;;;;;5.80;2.40;;;28.40;99.90;;;;;;4993685;28;20461;-62
2022/06/24 07:20:27;;;;;;;6.67;2.63;;;29.00;99.90;;;;;;4993937;28;20454;-63
2022/06/24 07:22:54;;;;;;;6.70;2.50;;;29.60;99.90;;;;;;4993645;28;20453;-62
2022/06/24 07:25:22;;;;;;;3.67;2.57;;;29.80;99.90;;;;;;4993855;28;20872;-62
2022/06/24 07:27:49;;;;;;;3.13;2.23;;;30.10;99.90;;;;;;4993849;28;20454;-62
2022/06/24 07:30:16;;;;;;;3.40;2.63;;;30.30;99.90;;;;;;4993764;28;20453;-63
2022/06/24 07:32:43;;;;;;;3.57;2.17;;;30.30;99.90;;;;;;4993725;28;20458;-62
2022/06/24 07:35:10;;;;;;;5.53;2.57;;;30.20;99.90;;;;;;4993677;28;20457;-62
2022/06/24 07:37:37;;;;;;;4.37;2.67;;;29.80;99.90;;;;;;4996428;28;20538;-62
2022/06/24 07:40:04;;;;;;;5.80;2.50;;;29.10;99.90;;;;;;4997436;28;20478;-62
2022/06/24 07:42:32;;;;;;;5.10;2.70;;;28.60;99.90;;;;;;4997283;28;20891;-62
2022/06/24 07:44:59;;;;;;;5.10;2.27;;;28.10;99.90;;;;;;4997228;28;20457;-62
2022/06/24 07:47:25;;;;;;;3.30;2.00;;;27.60;99.90;;;;;;4997370;28;20464;-62
2022/06/24 07:49:52;;;;;;;2.83;2.40;;;27.40;99.90;;;;;;4997307;28;20453;-62
2022/06/24 07:52:19;;;;;;;5.00;2.50;;;27.30;99.90;;;;;;4997225;28;20474;-62
2022/06/24 07:54:46;;;;;;;5.87;2.77;;;27.30;99.90;;;;;;4996847;28;20461;-62
2022/06/24 07:57:11;;;;;;;8.23;2.87;;;27.00;99.90;;;;;;4997049;28;20453;-62
2022/06/24 07:59:45;;;;;;;4.10;2.80;;;26.90;99.90;;;;;;4996930;28;20536;-62
2022/06/24 08:02:11;;;;;;;5.67;2.23;;;26.70;99.90;;;;;;4996787;28;20572;-62
2022/06/24 08:04:38;;;;;;;5.67;2.70;;;26.50;99.90;;;;;;4997038;28;20457;-62
2022/06/24 08:07:05;;;;;;;2.53;2.33;;;26.30;99.90;;;;;;4996722;28;20524;-62
2022/06/24 08:09:32;;;;;;;3.67;2.20;;;26.30;99.90;;;;;;4996958;28;20466;-62
2022/06/24 08:11:59;;;;;;;3.53;2.20;;;26.20;99.90;;;;;;4996771;28;20513;-62
2022/06/24 08:14:26;;;;;;;5.43;3.07;;;26.00;99.90;;;;;;4996835;28;20460;-62
2022/06/24 08:16:55;;;;;;;4.60;2.10;;;26.00;99.90;;;;;;4996843;28;20792;-62
2022/06/24 08:19:22;;;;;;;3.13;2.13;;;26.20;99.90;;;;;;4996492;28;20503;-62
2022/06/24 08:21:48;;;;;;;4.43;2.40;;;26.70;99.90;;;;;;4997111;28;20496;-62
2022/06/24 08:24:15;;;;;;;4.50;2.20;;;27.60;99.90;;;;;;4996647;28;20457;-62
2022/06/24 08:26:42;;;;;;;4.63;2.03;;;28.70;99.90;;;;;;4996532;28;20454;-62
2022/06/24 08:29:09;;;;;;;7.90;2.00;;;29.80;99.90;;;;;;4996635;28;20804;-62
2022/06/24 08:31:36;;;;;;;6.77;2.00;;;30.60;99.60;;;;;;4996510;28;20481;-63
2022/06/24 08:34:04;;;;;;;2.93;1.80;;;31.20;98.60;;;;;;4996482;28;20512;-63
2022/06/24 08:36:31;;;;;;;7.67;2.47;;;31.40;95.20;;;;;;4996009;28;20857;-63
2022/06/24 08:38:58;;;;;;;4.07;1.90;;;31.20;94.00;;;;;;4996105;28;20480;-62
2022/06/24 08:41:26;;;;;;;2.37;1.90;;;31.20;95.40;;;;;;4996287;28;20482;-62
2022/06/24 08:43:54;;;;;;;5.63;2.80;;;31.50;92.70;;;;;;4995904;28;20458;-62
2022/06/24 08:46:21;;;;;;;8.23;3.60;;;31.60;96.50;;;;;;4996141;28;20454;-62
2022/06/24 08:48:49;;;;;;;4.73;2.67;;;31.20;96.70;;;;;;4995683;28;20512;-62
2022/06/24 08:51:19;;;;;;;4.20;3.17;;;30.60;97.90;;;;;;4995878;28;20474;-63
2022/06/24 08:53:46;;;;;;;5.27;3.23;;;29.80;98.80;;;;;;4996174;28;20504;-62
2022/06/24 08:56:12;;;;;;;5.10;2.80;;;29.40;99.90;;;;;;4996269;28;20457;-62
2022/06/24 08:58:41;;;;;;;5.37;2.83;;;29.90;99.90;;;;;;4995900;28;20824;-63
2022/06/24 09:01:07;;;;;;;6.00;3.10;;;30.30;99.90;;;;;;4995701;28;20493;-63
2022/06/24 09:03:34;;;;;;;3.80;3.00;;;30.80;99.30;;;;;;4996059;28;20453;-63
2022/06/24 09:06:11;;;;;;;8.97;3.30;;;30.50;99.70;;;;;;4995922;28;20872;-63
2022/06/24 09:08:45;;;;;;;3.87;2.93;;;30.20;99.90;;;;;;4995929;28;20442;-63
2022/06/24 09:11:12;;;;;;;7.90;2.90;;;30.30;99.90;;;;;;4995644;28;21007;-64
2022/06/24 09:13:44;;;;;;;3.83;3.00;;;30.60;99.70;;;;;;4995782;28;20454;-63
2022/06/24 09:16:11;;;;;;;5.23;3.10;;;30.90;99.30;;;;;;4995688;28;20457;-63
2022/06/24 09:18:39;;;;;;;3.80;2.93;;;31.00;96.40;;;;;;4995579;28;20765;-64
2022/06/24 09:21:06;;;;;;;3.13;2.90;;;31.60;96.70;;;;;;4995542;28;20836;-63
2022/06/24 09:23:32;;;;;;;8.77;2.80;;;31.90;94.80;;;;;;4995391;28;20963;-63
2022/06/24 09:26:01;;;;;;;8.60;3.00;;;32.70;94.70;;;;;;4995622;28;20457;-63
2022/06/24 09:28:30;;;;;;;6.83;3.23;;;33.50;92.90;;;;;;4995617;28;20865;-63
2022/06/24 09:31:01;;;;;;;3.73;2.00;;;34.30;91.80;;;;;;4998149;28;20469;-64
2022/06/24 09:33:28;;;;;;;3.13;2.80;;;35.30;89.30;;;;;;5007390;28;20476;-63
2022/06/24 09:36:00;;;;;;;3.33;2.67;;;35.40;86.40;;;;;;4997460;28;20465;-64
2022/06/24 09:38:27;;;;;;;3.77;2.70;;;35.20;87.80;;;;;;4995612;28;20438;-64
2022/06/24 09:41:01;;;;;;;2.73;2.27;;;35.40;80.10;;;;;;4995565;28;20481;-63
2022/06/24 09:43:31;;;;;;;5.83;2.60;;;35.20;81.80;;;;;;4995354;28;20491;-63
2022/06/24 09:45:59;;;;;;;4.50;2.93;;;35.20;81.80;;;;;;4995605;28;20460;-63
2022/06/24 09:48:30;;;;;;;3.83;2.50;;;34.90;82.90;;;;;;4995470;28;20464;-63
2022/06/24 09:50:59;;;;;;;4.30;2.70;;;34.90;79.00;;;;;;4995079;28;20475;-63
2022/06/24 09:53:27;;;;;;;3.23;2.63;;;34.40;76.30;;;;;;4994788;28;20959;-63
2022/06/24 09:55:55;;;;;;;4.40;2.30;;;33.70;80.60;;;;;;4994766;28;20944;-64
2022/06/24 09:58:23;;;;;;;4.40;2.50;;;33.60;80.70;;;;;;4994946;28;20457;-64
2022/06/24 10:00:50;;;;;;;3.53;2.50;;;33.60;77.40;;;;;;4994259;28;20858;-64
2022/06/24 10:03:18;;;;;;;4.17;2.37;;;33.00;76.70;;;;;;4994947;28;20515;-63
2022/06/24 10:05:46;;;;;;;4.23;2.60;;;32.80;81.80;;;;;;4994935;28;20461;-63
2022/06/24 10:08:15;;;;;;;4.53;2.40;;;33.20;83.30;;;;;;4994518;28;20829;-64
2022/06/24 10:10:47;;;;;;;3.93;2.53;;;33.80;84.10;;;;;;4994850;28;20473;-63
2022/06/24 10:13:24;;;;;;;2.67;2.47;;;34.40;80.30;;;;;;4994709;28;20488;-63
2022/06/24 10:15:52;;;;;;;3.17;2.87;;;34.60;75.00;;;;;;4994785;28;20523;-63
2022/06/24 10:18:20;;;;;;;4.37;2.83;;;34.10;78.10;;;;;;4994836;28;20489;-62
2022/06/24 10:20:49;;;;;;;6.53;2.73;;;33.70;81.30;;;;;;4994673;28;20492;-63
2022/06/24 10:23:42;;;;;;;3.47;2.57;;;34.00;80.50;;;;;;4995334;28;20457;-63
2022/06/24 10:26:17;;;;;;;4.93;2.70;;;34.30;79.00;;;;;;4994735;28;20462;-63
2022/06/24 10:29:17;;;;;;;3.53;2.67;;;33.90;77.60;;;;;;4994641;28;20856;-62
2022/06/24 10:31:53;;;;;;;2.77;2.57;;;32.60;81.80;;;;;;4994604;28;20485;-63
2022/06/24 10:34:36;;;;;;;3.10;2.60;;;32.10;86.50;;;;;;4994475;28;20492;-63
2022/06/24 10:37:08;;;;;;;4.93;2.43;;;32.10;84.70;;;;;;4993087;28;20460;-63
2022/06/24 10:39:44;;;;;;;3.97;2.60;;;31.90;83.60;;;;;;4994429;28;20517;-62
2022/06/24 10:42:14;;;;;;;3.57;2.30;;;31.20;84.50;;;;;;4994203;28;20481;-63
2022/06/24 10:45:01;;;;;;;3.73;2.83;;;31.40;88.40;;;;;;4993864;28;20460;-63
2022/06/24 10:47:37;;;;;;;6.37;2.27;;;31.60;84.90;;;;;;4994195;28;20442;-63
2022/06/24 10:50:14;;;;;;;4.50;2.50;;;32.20;84.80;;;;;;4994282;28;20445;-63
2022/06/24 10:52:45;;;;;;;3.47;2.57;;;32.80;78.90;;;;;;4994343;28;20441;-63
2022/06/24 10:55:42;;;;;;;4.57;2.30;;;33.30;79.70;;;;;;4993917;28;20438;-63
2022/06/24 10:58:16;;;;;;;3.97;2.20;;;33.50;76.60;;;;;;4953154;29;20554;-63
2022/06/24 11:00:51;;;;;;;3.87;2.30;;;33.50;77.50;;;;;;4986252;28;20539;-63
2022/06/24 11:03:27;;;;;;;2.87;2.23;;;33.60;76.30;;;;;;4994106;28;20457;-63
2022/06/24 11:05:53;;;;;;;6.20;2.93;;;33.50;78.90;;;;;;4994106;28;20441;-63
2022/06/24 11:08:22;;;;;;;3.53;2.87;;;33.30;80.00;;;;;;4994224;28;20457;-63
2022/06/24 11:10:50;;;;;;;3.10;2.30;;;33.20;75.60;;;;;;4995578;28;20473;-63
2022/06/24 11:13:18;;;;;;;4.87;2.03;;;33.50;79.50;;;;;;4998017;28;20457;-63
2022/06/24 11:15:47;;;;;;;2.70;2.50;;;33.40;78.80;;;;;;4997856;28;20453;-63
2022/06/24 11:18:16;;;;;;;5.70;2.13;;;33.20;76.60;;;;;;4998451;28;20453;-63
2022/06/24 11:20:45;;;;;;;2.40;2.20;;;33.30;74.50;;;;;;4997617;28;20485;-63
2022/06/24 11:23:14;;;;;;;2.83;1.93;;;33.20;75.20;;;;;;4997792;28;20515;-63
2022/06/24 11:25:47;;;;;;;3.40;2.10;;;32.90;77.90;;;;;;4997737;28;20937;-63
2022/06/24 11:28:22;;;;;;;2.27;1.97;;;32.70;77.10;;;;;;4998041;28;20529;-63
2022/06/24 11:30:49;;;;;;;1.90;1.80;;;32.40;76.00;;;;;;4997809;28;20528;-62
2022/06/24 11:33:16;;;;;;;3.90;1.90;;;31.60;79.30;;;;;;4997433;28;20940;-63
2022/06/24 11:35:45;;;;;;;5.43;2.13;;;31.20;80.30;;;;;;4997811;28;20523;-63
2022/06/24 11:38:12;;;;;;;2.03;1.93;;;31.10;81.80;;;;;;4997616;28;20457;-63
2022/06/24 11:40:40;;;;;;;3.20;1.97;;;30.60;81.40;;;;;;4997550;28;20489;-63
2022/06/24 11:43:09;;;;;;;4.20;2.00;;;30.50;81.30;;;;;;4997937;28;20456;-63
2022/06/24 11:45:37;;;;;;;2.30;1.70;;;30.10;80.60;;;;;;4998037;28;20458;-63
2022/06/24 11:48:05;;;;;;;3.30;1.77;;;29.70;81.10;;;;;;4997691;28;20456;-63
2022/06/24 11:50:33;;;;;;;1.40;1.40;;;29.60;82.80;;;;;;4997610;28;20489;-63
2022/06/24 11:53:02;;;;;;;3.03;1.67;;;29.60;83.50;;;;;;4997291;28;20454;-63
2022/06/24 11:55:30;;;;;;;3.40;1.60;;;29.70;80.10;;;;;;4997686;28;20461;-63
2022/06/24 11:57:58;;;;;;;2.70;1.23;;;30.20;83.60;;;;;;4998236;28;20465;-63
2022/06/24 12:00:27;;;;;;;2.20;1.47;;;30.70;79.50;;;;;;4996921;28;20478;-63
2022/06/24 12:02:56;;;;;;;1.70;1.60;;;30.80;75.60;;;;;;4997953;28;20879;-63
2022/06/24 12:05:26;;;;;;;1.83;1.23;;;30.80;75.20;;;;;;4998693;28;20544;-63
2022/06/24 12:07:54;;;;;;;1.87;1.60;;;31.00;78.70;;;;;;4998912;28;20442;-63
2022/06/24 12:10:23;;;;;;;2.00;1.40;;;31.20;76.50;;;;;;4997972;28;20540;-63
2022/06/24 12:12:59;;;;;;;1.40;1.30;;;31.20;77.30;;;;;;4998073;28;20473;-63
2022/06/24 12:15:28;;;;;;;4.87;1.87;;;31.20;73.60;;;;;;4999290;28;20433;-63
2022/06/24 12:17:56;;;;;;;2.03;1.30;;;30.70;70.90;;;;;;4999587;28;20790;-62
2022/06/24 12:20:24;;;;;;;3.93;1.60;;;30.40;75.70;;;;;;4998790;28;20485;-62
2022/06/24 12:23:13;;;;;;;1.50;1.33;;;30.20;75.90;;;;;;4997596;28;20481;-63
2022/06/24 12:25:42;;;;;;;1.60;1.50;;;30.00;76.10;;;;;;4997450;28;20976;-63
2022/06/24 12:28:22;;;;;;;2.67;1.30;;;29.70;74.10;;;;;;4997964;28;20975;-64
2022/06/24 12:30:57;;;;;;;1.43;1.40;;;29.70;76.50;;;;;;4998342;28;20473;-62
2022/06/24 12:33:25;;;;;;;3.60;1.60;;;29.70;77.30;;;;;;4997545;28;20458;-63
2022/06/24 12:36:08;;;;;;;1.50;1.40;;;30.00;79.00;;;;;;4998118;28;20536;-63
2022/06/24 12:38:36;;;;;;;1.50;1.40;;;30.20;79.20;;;;;;4996632;28;20446;-63
2022/06/24 12:41:08;;;;;;;2.63;1.37;;;30.20;78.60;;;;;;4996817;28;20492;-62
2022/06/24 12:43:35;;;;;;;1.63;1.33;;;30.30;76.30;;;;;;4996481;28;21011;-63
2022/06/24 12:46:05;;;;;;;3.70;2.93;;;30.20;77.20;;;;;;4996231;28;20454;-62
2022/06/24 12:51:24;;;;;;;2.10;1.60;;;29.90;78.20;;;;;;4996272;28;20456;-63
2022/06/24 12:53:52;;;;;;;1.70;1.60;;;29.80;75.80;;;;;;4996326;28;20444;-63
2022/06/24 12:56:21;;;;;;;1.40;1.30;;;29.60;78.30;;;;;;4996070;28;20480;-63
2022/06/24 12:58:50;;;;;;;2.83;1.80;;;29.40;77.30;;;;;;4995970;28;20955;-63
2022/06/24 13:01:17;;;;;;;1.30;1.30;;;29.30;79.50;;;;;;4996436;28;20907;-63
2022/06/24 13:03:44;;;;;;;4.30;1.40;;;29.10;77.00;;;;;;4995974;28;20508;-62
2022/06/24 13:06:11;;;;;;;1.53;1.43;;;28.90;79.40;;;;;;4995783;28;20517;-62
2022/06/24 13:08:37;;;;;;;1.33;1.17;;;28.80;81.90;;;;;;4995939;28;20464;-63
2022/06/24 13:11:04;;;;;;;2.33;1.43;;;28.70;80.50;;;;;;4995929;28;20837;-63
2022/06/24 13:13:32;;;;;;;2.40;1.50;;;28.50;81.20;;;;;;4995675;28;20458;-62
2022/06/24 13:15:59;;;;;;;2.13;1.70;;;28.20;79.50;;;;;;4995870;28;20458;-62
2022/06/24 13:18:26;;;;;;;1.60;1.50;;;28.10;79.60;;;;;;4995963;28;20465;-63
2022/06/24 13:20:53;;;;;;;2.00;1.77;;;28.00;81.20;;;;;;4995676;28;20532;-63
2022/06/24 13:23:20;;;;;;;1.57;1.47;;;28.00;85.30;;;;;;4995584;28;20945;-63
2022/06/24 13:25:47;;;;;;;1.40;1.27;;;27.80;86.10;;;;;;4995687;28;20457;-62
2022/06/24 13:28:14;;;;;;;1.53;1.30;;;27.70;83.70;;;;;;4995304;28;20949;-63
2022/06/24 13:30:42;;;;;;;1.93;1.73;;;27.60;83.80;;;;;;4995260;28;20833;-63
2022/06/24 13:33:09;;;;;;;3.80;1.40;;;27.50;82.80;;;;;;4995193;28;20969;-63
2022/06/24 13:35:35;;;;;;;2.90;1.70;;;27.40;82.80;;;;;;4994776;28;20464;-63
2022/06/24 13:38:02;;;;;;;1.50;1.40;;;27.40;83.10;;;;;;4995254;28;20945;-63
2022/06/24 13:40:29;;;;;;;1.97;1.87;;;27.30;83.70;;;;;;4995272;28;20481;-63
2022/06/24 13:42:57;;;;;;;2.30;2.10;;;27.30;85.80;;;;;;4996303;28;20545;-63
2022/06/24 13:45:25;;;;;;;5.30;2.60;;;27.20;90.90;;;;;;4995424;28;20453;-63
2022/06/24 13:47:53;;;;;;;4.93;2.77;;;26.90;92.90;;;;;;4995006;28;20458;-63
2022/06/24 13:50:20;;;;;;;5.10;2.30;;;26.70;93.90;;;;;;4995067;28;20821;-63
2022/06/24 13:52:47;;;;;;;8.23;2.70;;;26.30;95.10;;;;;;4994965;28;20493;-63
2022/06/24 13:55:13;;;;;;;8.13;2.53;;;26.00;96.50;;;;;;4995262;28;20457;-63
2022/06/24 13:57:40;;;;;;;4.97;2.93;;;25.70;98.10;;;;;;4995030;28;20953;-63
2022/06/24 14:00:09;;;;;;;6.13;2.40;;;25.40;99.80;;;;;;4995071;28;20460;-63
2022/06/24 14:02:36;;;;;;;3.33;2.70;;;25.00;99.70;;;;;;4994948;28;20470;-63
2022/06/24 14:05:05;;;;;;;2.20;2.10;;;24.80;99.90;;;;;;4994912;28;20969;-62
2022/06/24 14:07:31;;;;;;;2.50;2.30;;;24.70;99.90;;;;;;4995180;28;20456;-63
2022/06/24 14:09:59;;;;;;;3.40;2.40;;;24.50;99.90;;;;;;4994919;28;20968;-63
2022/06/24 14:12:26;;;;;;;7.73;2.83;;;24.40;99.90;;;;;;4994754;28;20509;-62
2022/06/24 14:14:53;;;;;;;4.40;2.77;;;24.20;99.90;;;;;;4994531;28;20942;-62
2022/06/24 14:17:20;;;;;;;6.30;2.20;;;24.10;99.90;;;;;;4995257;28;20470;-62
2022/06/24 14:19:47;;;;;;;4.60;2.57;;;23.90;99.90;;;;;;4995266;28;20437;-63
2022/06/24 14:22:15;;;;;;;5.80;2.67;;;23.80;99.90;;;;;;4994812;28;20984;-62
2022/06/24 14:24:41;;;;;;;3.57;2.83;;;23.80;99.90;;;;;;4994636;28;20825;-62
2022/06/24 14:27:09;;;;;;;24.37;3.33;;;23.70;99.90;;;;;;4994523;28;20453;-62
2022/06/24 14:29:38;;;;;;;5.23;2.77;;;23.60;99.90;;;;;;4994630;28;20198;-62
2022/06/24 14:32:06;;;;;;;3.07;2.50;;;23.60;99.90;;;;;;4994339;28;20886;-62
2022/06/24 14:34:33;;;;;;;4.00;3.10;;;23.30;99.90;;;;;;4994409;28;20456;-62
2022/06/24 14:37:01;;;;;;;2.80;2.60;;;23.10;99.90;;;;;;4994090;28;20561;-62
2022/06/24 14:42:28;;;;;;;3.47;2.73;;;23.00;99.90;;;;;;4953681;29;20604;-62
2022/06/24 14:44:55;;;;;;;8.50;3.63;;;22.90;99.90;;;;;;4953097;29;20455;-62
2022/06/24 14:47:21;;;;;;;4.53;2.17;;;22.70;99.90;;;;;;4970845;28;20457;-62
2022/06/24 14:49:48;;;;;;;3.30;2.90;;;22.50;99.90;;;;;;4994671;28;20458;-62
2022/06/24 14:52:15;;;;;;;5.27;2.40;;;22.30;99.90;;;;;;4994100;28;20481;-62
2022/06/24 14:54:43;;;;;;;3.20;2.90;;;22.10;99.90;;;;;;4993867;28;20462;-63
2022/06/24 14:57:09;;;;;;;4.73;3.07;;;22.00;99.90;;;;;;4994301;28;20458;-62
2022/06/24 14:59:36;;;;;;;4.90;3.83;;;22.00;99.90;;;;;;4994186;28;20480;-62
2022/06/24 15:02:03;;;;;;;3.60;3.07;;;21.80;99.90;;;;;;4993792;28;20486;-62
2022/06/24 15:04:30;;;;;;;4.10;3.33;;;21.70;99.90;;;;;;4994293;28;20450;-63
2022/06/24 15:06:57;;;;;;;3.87;3.20;;;21.60;99.90;;;;;;4994298;28;20454;-63
2022/06/24 15:09:23;;;;;;;2.70;2.50;;;21.40;99.90;;;;;;4994203;28;20458;-63
2022/06/24 15:11:52;;;;;;;4.90;2.33;;;21.20;99.90;;;;;;4993780;28;21018;-62
2022/06/24 15:14:19;;;;;;;5.03;2.13;;;21.00;99.90;;;;;;4994110;28;20461;-62
2022/06/24 15:16:45;;;;;;;3.23;1.00;;;20.70;99.90;;;;;;4994314;28;20453;-62
2022/06/24 15:19:12;;;;;;;4.83;1.37;;;20.30;99.90;;;;;;4994076;28;20445;-62
2022/06/24 15:21:38;;;;;;;1.63;1.40;;;19.90;99.90;;;;;;4993918;28;20484;-62
2022/06/24 15:24:06;;;;;;;6.90;1.50;;;19.60;99.90;;;;;;4993983;28;20481;-62
2022/06/24 15:26:33;;;;;;;2.90;1.50;;;19.30;99.90;;;;;;4993866;28;20461;-62
2022/06/24 15:29:01;;;;;;;2.93;1.47;;;19.20;99.90;;;;;;4993747;28;20968;-62
2022/06/24 15:31:27;;;;;;;2.03;1.40;;;19.10;99.90;;;;;;4993880;28;20469;-62
2022/06/24 15:33:54;;;;;;;3.80;1.67;;;19.00;99.90;;;;;;4993708;28;20453;-62
2022/06/24 15:36:21;;;;;;;1.80;1.70;;;19.00;99.90;;;;;;4993898;28;20462;-62
2022/06/24 15:38:47;;;;;;;3.00;2.00;;;18.90;99.90;;;;;;4993814;28;20454;-63
2022/06/24 15:41:16;;;;;;;2.73;2.37;;;18.90;99.90;;;;;;4993411;28;20477;-63
2022/06/24 15:43:44;;;;;;;2.07;1.97;;;18.90;99.90;;;;;;4994004;28;20454;-63
2022/06/24 15:46:12;;;;;;;2.23;2.10;;;18.90;99.90;;;;;;4995104;28;20460;-63
2022/06/24 15:48:40;;;;;;;3.00;2.30;;;18.90;99.90;;;;;;4994696;28;20458;-64
2022/06/24 15:51:07;;;;;;;2.97;2.77;;;18.90;99.90;;;;;;4994111;28;20480;-64
2022/06/24 15:53:34;;;;;;;5.17;2.40;;;19.00;99.90;;;;;;4993820;28;20464;-64
2022/06/24 15:56:01;;;;;;;3.10;2.60;;;19.00;99.90;;;;;;4993948;28;20460;-64
2022/06/24 15:58:27;;;;;;;9.33;3.80;;;19.00;99.90;;;;;;4996141;28;20453;-63
2022/06/24 16:00:54;;;;;;;2.83;2.50;;;19.00;99.90;;;;;;4996694;28;20492;-64
2022/06/24 16:03:22;;;;;;;3.40;2.53;;;19.10;99.90;;;;;;4997205;28;20462;-64
2022/06/24 16:05:49;;;;;;;2.80;2.60;;;19.10;99.90;;;;;;4997536;28;20454;-63
2022/06/24 16:08:16;;;;;;;3.20;2.80;;;19.20;99.90;;;;;;4997304;28;20889;-62
2022/06/24 16:10:43;;;;;;;3.97;2.60;;;19.10;99.90;;;;;;4996952;28;20474;-63
2022/06/24 16:13:09;;;;;;;2.50;2.20;;;19.20;99.90;;;;;;4996976;28;20457;-64
2022/06/24 16:15:36;;;;;;;3.93;2.30;;;19.20;99.90;;;;;;4997741;28;20458;-63
2022/06/24 16:18:02;;;;;;;4.53;2.50;;;19.20;99.90;;;;;;4996838;28;20855;-64
2022/06/24 16:20:31;;;;;;;2.93;2.60;;;19.20;99.90;;;;;;4996736;28;20457;-62
2022/06/24 16:22:58;;;;;;;3.23;2.70;;;19.20;99.90;;;;;;4996655;28;20481;-63
2022/06/24 16:30:53;;;;;;;3.77;2.53;;;19.30;99.90;;;;;;4996482;28;20476;-62
2022/06/24 16:33:21;;;;;;;3.40;3.03;;;19.30;99.90;;;;;;4996826;28;20864;-62
2022/06/24 16:35:50;;;;;;;2.90;2.70;;;19.40;99.90;;;;;;4996316;28;20485;-62
2022/06/24 16:38:17;;;;;;;3.40;3.20;;;19.40;99.90;;;;;;4996537;28;20505;-62
2022/06/24 16:40:44;;;;;;;3.57;3.27;;;19.40;99.90;;;;;;4996099;28;20473;-61
2022/06/24 16:43:16;;;;;;;3.77;3.30;;;19.40;99.90;;;;;;4996447;28;20461;-61
2022/06/24 16:45:43;;;;;;;2.70;2.60;;;19.50;99.90;;;;;;4996235;28;20469;-61
2022/06/24 16:48:10;;;;;;;3.83;3.43;;;19.50;99.90;;;;;;4996386;28;20461;-61
2022/06/24 16:50:39;;;;;;;3.80;3.37;;;19.50;99.90;;;;;;4995962;28;20944;-63
2022/06/24 16:53:08;;;;;;;4.00;3.40;;;19.40;99.90;;;;;;4995884;28;20960;-62
2022/06/24 16:55:35;;;;;;;3.47;3.23;;;19.40;99.90;;;;;;4995909;28;20968;-62
2022/06/24 16:58:02;;;;;;;3.17;3.00;;;19.40;99.90;;;;;;4996294;28;20461;-62
2022/06/24 17:00:29;;;;;;;4.47;3.50;;;19.40;99.90;;;;;;4995923;28;20458;-62
2022/06/24 17:02:55;;;;;;;2.93;2.73;;;19.40;99.90;;;;;;4996109;28;20472;-62
2022/06/24 17:05:22;;;;;;;3.57;3.27;;;19.40;99.90;;;;;;4996298;28;20438;-62